Time;durP1;ratioP1;P1;durP2;ratioP2;P2;SDS_P1;SDS_P2;PMS_P1;PMS_P2;Temp;Humidity;BMP_temperature;BMP_pressure;BME280_temperature;BME280_humidity;BME280_pressure;Samples;Min_cycle;Max_cycle;Signal;HPM_P1;HPM_P2
2022/11/19 00:00:20;;;;;;;;;;;0.70;99.90;;;;;;5091349;28;20440;-68
2022/11/19 00:02:46;;;;;;;;;;;0.70;99.90;;;;;;5090637;28;19951;-66
2022/11/19 00:05:11;;;;;;;;;;;0.70;99.90;;;;;;5090065;28;20070;-66
2022/11/19 00:07:37;;;;;;;;;;;0.60;99.90;;;;;;5091079;28;19931;-66
2022/11/19 00:10:02;;;;;;;;;;;0.50;99.90;;;;;;5090081;28;19946;-67
2022/11/19 00:15:12;;;;;;;;;;;0.50;99.90;;;;;;5124233;27;19928;-66
2022/11/19 00:17:38;;;;;;;;;;;0.50;99.90;;;;;;5090510;28;19924;-66
2022/11/19 00:20:03;;;;;;;;;;;0.50;99.90;;;;;;5084683;28;19931;-66
2022/11/19 00:22:29;;;;;;;;;;;0.50;99.90;;;;;;5110110;28;19924;-66
2022/11/19 00:24:54;;;;;;;;;;;0.40;99.90;;;;;;5109329;28;19923;-66
2022/11/19 00:27:20;;;;;;;;;;;0.40;99.90;;;;;;5108127;28;19924;-66
2022/11/19 00:29:46;;;;;;;;;;;0.40;99.90;;;;;;5099185;28;19928;-65
2022/11/19 00:32:11;;;;;;;;;;;0.40;99.90;;;;;;5111249;28;20300;-68
2022/11/19 00:34:37;;;;;;;;;;;0.40;99.90;;;;;;5107305;28;20268;-68
2022/11/19 00:37:02;;;;;;;;;;;0.30;99.90;;;;;;5091224;28;19924;-66
2022/11/19 00:39:28;;;;;;;;;;;0.30;99.90;;;;;;5098527;28;19967;-66
2022/11/19 00:41:53;;;;;;;;;;;0.30;99.90;;;;;;5103109;28;19935;-66
2022/11/19 00:44:19;;;;;;;;;;;1.00;99.90;;;;;;5110022;28;19927;-65
2022/11/19 00:46:45;;;;;;;;;;;0.20;99.90;;;;;;5106521;28;19928;-66
2022/11/19 00:49:10;;;;;;;;;;;0.20;99.90;;;;;;5097869;28;19927;-65
2022/11/19 00:51:36;;;;;;;;;;;0.20;99.90;;;;;;5110166;28;19924;-65
2022/11/19 00:54:01;;;;;;;;;;;0.10;99.90;;;;;;5109872;28;20343;-65
2022/11/19 00:56:27;;;;;;;;;;;0.10;99.90;;;;;;5077248;28;19942;-66
2022/11/19 00:58:53;;;;;;;;;;;0.10;99.90;;;;;;5098970;28;20014;-69
2022/11/19 01:01:20;;;;;;;;;;;0.00;99.90;;;;;;5109622;28;19924;-65
2022/11/19 01:03:45;;;;;;;;;;;0.00;99.90;;;;;;5088187;28;19924;-65
2022/11/19 01:06:12;;;;;;;;;;;0.00;99.90;;;;;;5088994;28;19924;-66
2022/11/19 01:08:38;;;;;;;;;;;-0.10;99.90;;;;;;5072587;28;19974;-67
2022/11/19 01:11:11;;;;;;;;;;;-0.10;99.90;;;;;;5088502;28;20380;-66
2022/11/19 01:13:37;;;;;;;;;;;-0.10;99.90;;;;;;5090985;28;19935;-66
2022/11/19 01:16:04;;;;;;;;;;;-0.10;99.90;;;;;;5088679;28;19927;-66
2022/11/19 01:18:30;;;;;;;;;;;-0.10;99.90;;;;;;5089522;28;19931;-66
2022/11/19 01:20:55;;;;;;;;;;;-0.10;99.90;;;;;;5089222;28;19928;-69
2022/11/19 01:23:21;;;;;;;;;;;-0.10;99.90;;;;;;5090822;28;19924;-66
2022/11/19 01:25:47;;;;;;;;;;;-0.10;99.90;;;;;;5109774;28;20003;-66
2022/11/19 01:28:12;;;;;;;;;;;-0.10;99.90;;;;;;5106965;28;19923;-66
2022/11/19 01:30:39;;;;;;;;;;;-0.10;99.90;;;;;;5104878;28;19978;-66
2022/11/19 01:33:05;;;;;;;;;;;-0.10;99.90;;;;;;5109303;28;19932;-66
2022/11/19 01:35:30;;;;;;;;;;;0.00;99.90;;;;;;5097080;28;19930;-66
2022/11/19 01:37:56;;;;;;;;;;;-0.10;99.90;;;;;;5095440;28;20365;-66
2022/11/19 01:40:22;;;;;;;;;;;0.00;99.90;;;;;;5088215;28;19925;-66
2022/11/19 01:42:52;;;;;;;;;;;-0.10;99.90;;;;;;5090734;28;19928;-66
2022/11/19 01:45:20;;;;;;;;;;;-0.10;99.90;;;;;;5089918;28;19924;-66
2022/11/19 01:47:46;;;;;;;;;;;-0.10;99.90;;;;;;5073424;28;20445;-66
2022/11/19 01:50:12;;;;;;;;;;;0.70;99.90;;;;;;5091815;28;20030;-66
2022/11/19 01:52:38;;;;;;;;;;;-0.10;99.90;;;;;;5072319;28;19934;-66
2022/11/19 01:55:05;;;;;;;;;;;-0.20;99.90;;;;;;5088650;28;19932;-66
2022/11/19 01:57:30;;;;;;;;;;;-0.20;99.90;;;;;;5072416;28;19963;-66
2022/11/19 01:59:56;;;;;;;;;;;-0.20;99.90;;;;;;5090545;28;19975;-65
2022/11/19 02:02:22;;;;;;;;;;;-0.30;99.90;;;;;;5071273;28;19920;-66
2022/11/19 02:04:50;;;;;;;;;;;-0.30;99.90;;;;;;5089247;28;20297;-66
2022/11/19 02:07:17;;;;;;;;;;;-0.40;99.90;;;;;;5089836;28;19977;-66
2022/11/19 02:09:43;;;;;;;;;;;-0.40;99.90;;;;;;5081608;28;19928;-66
2022/11/19 02:12:08;;;;;;;;;;;-0.50;99.90;;;;;;5089030;28;19924;-66
2022/11/19 02:14:56;;;;;;;;;;;-0.50;99.90;;;;;;5090538;28;20353;-66
2022/11/19 02:17:35;;;;;;;;;;;-0.50;99.90;;;;;;5089801;28;20301;-67
2022/11/19 02:20:14;;;;;;;;;;;-0.50;99.90;;;;;;5098562;28;19934;-66
2022/11/19 02:22:43;;;;;;;;;;;-0.60;99.90;;;;;;5099765;28;19981;-66
2022/11/19 02:25:22;;;;;;;;;;;-0.60;99.90;;;;;;5109326;28;20412;-65
2022/11/19 02:27:54;;;;;;;;;;;-0.60;99.90;;;;;;5094069;28;20026;-65
2022/11/19 02:30:19;;;;;;;;;;;-0.70;99.90;;;;;;5100066;28;19934;-66
2022/11/19 02:32:48;;;;;;;;;;;-0.70;99.90;;;;;;5078343;28;19927;-66
2022/11/19 02:35:21;;;;;;;;;;;-0.70;99.90;;;;;;5093306;28;19972;-66
2022/11/19 02:37:52;;;;;;;;;;;-0.80;99.90;;;;;;5092231;28;19924;-66
2022/11/19 02:40:22;;;;;;;;;;;-0.80;99.90;;;;;;5098085;28;20622;-66
2022/11/19 02:43:06;;;;;;;;;;;-0.90;99.90;;;;;;5096055;28;19924;-66
2022/11/19 02:45:35;;;;;;;;;;;-0.90;99.90;;;;;;5092973;28;19924;-67
2022/11/19 02:48:07;;;;;;;;;;;-1.00;99.90;;;;;;5108345;28;20317;-66
2022/11/19 02:50:34;;;;;;;;;;;-1.00;99.90;;;;;;5076342;28;19928;-66
2022/11/19 02:53:01;;;;;;;;;;;-1.00;99.90;;;;;;5092400;28;19924;-67
2022/11/19 02:55:27;;;;;;;;;;;-1.00;99.90;;;;;;5092760;28;20007;-66
2022/11/19 02:58:07;;;;;;;;;;;-0.90;99.90;;;;;;5126081;27;20061;-65
2022/11/19 03:06:17;;;;;;;;;;;-1.10;99.90;;;;;;5125317;27;19932;-65
2022/11/19 03:08:44;;;;;;;;;;;-1.10;99.90;;;;;;5092712;28;19928;-65
2022/11/19 03:11:19;;;;;;;;;;;-1.10;99.90;;;;;;5102840;28;20061;-65
2022/11/19 03:16:41;;;;;;;;;;;-0.30;99.90;;;;;;5109320;28;19932;-65
2022/11/19 03:19:10;;;;;;;;;;;-1.10;99.90;;;;;;5108867;28;19928;-65
2022/11/19 03:21:35;;;;;;;;;;;-1.10;99.90;;;;;;5111183;28;19935;-65
2022/11/19 03:24:07;;;;;;;;;;;-1.20;99.90;;;;;;5092373;28;19981;-65
2022/11/19 03:26:34;;;;;;;;;;;-1.20;99.90;;;;;;5110874;28;20417;-65
2022/11/19 03:29:06;;;;;;;;;;;-1.20;99.90;;;;;;5110336;28;19963;-65
2022/11/19 03:31:33;;;;;;;;;;;-1.10;99.90;;;;;;5083760;28;19935;-66
2022/11/19 03:34:00;;;;;;;;;;;-1.20;99.90;;;;;;5108486;28;19935;-65
2022/11/19 03:36:31;;;;;;;;;;;-1.30;99.90;;;;;;5104226;28;19928;-65
2022/11/19 03:38:59;;;;;;;;;;;-1.30;99.90;;;;;;5105291;28;19935;-65
2022/11/19 03:41:25;;;;;;;;;;;-1.30;99.90;;;;;;5099904;28;20304;-65
2022/11/19 03:43:52;;;;;;;;;;;-1.40;99.90;;;;;;5111139;28;19923;-65
2022/11/19 03:46:19;;;;;;;;;;;-1.40;99.90;;;;;;5109929;28;20380;-65
2022/11/19 03:48:47;;;;;;;;;;;-1.40;99.90;;;;;;5101715;28;20301;-65
2022/11/19 03:51:14;;;;;;;;;;;-1.40;99.90;;;;;;5103400;28;20002;-65
2022/11/19 03:53:40;;;;;;;;;;;-1.20;99.90;;;;;;5106821;28;19924;-65
2022/11/19 03:56:07;;;;;;;;;;;-1.40;99.90;;;;;;5099691;28;19935;-65
2022/11/19 03:58:37;;;;;;;;;;;-1.40;99.90;;;;;;5103557;28;19923;-65
2022/11/19 04:01:03;;;;;;;;;;;-1.50;99.90;;;;;;5107940;28;20327;-65
2022/11/19 04:03:29;;;;;;;;;;;-1.40;99.90;;;;;;5109409;28;19931;-65
2022/11/19 04:05:54;;;;;;;;;;;-1.50;99.90;;;;;;5112489;28;20404;-66
2022/11/19 04:08:20;;;;;;;;;;;-1.40;99.90;;;;;;5090130;28;20367;-68
2022/11/19 04:10:45;;;;;;;;;;;-1.40;99.90;;;;;;5090211;28;19949;-66
2022/11/19 04:13:11;;;;;;;;;;;-1.40;99.90;;;;;;5091412;28;19935;-65
2022/11/19 04:15:36;;;;;;;;;;;-1.40;99.90;;;;;;5072740;28;19968;-65
2022/11/19 04:18:02;;;;;;;;;;;-1.30;99.90;;;;;;5092167;28;19981;-65
2022/11/19 04:20:27;;;;;;;;;;;-1.40;99.90;;;;;;5090040;28;19932;-65
2022/11/19 04:22:53;;;;;;;;;;;-1.10;99.90;;;;;;5092508;28;19931;-66
2022/11/19 04:25:18;;;;;;;;;;;-1.40;99.90;;;;;;5056989;28;19924;-66
2022/11/19 04:27:45;;;;;;;;;;;-1.40;99.90;;;;;;5091200;28;20342;-65
2022/11/19 04:30:11;;;;;;;;;;;-1.40;99.90;;;;;;5090129;28;19934;-66
2022/11/19 04:32:36;;;;;;;;;;;-1.50;99.90;;;;;;5089666;28;20015;-65
2022/11/19 04:35:02;;;;;;;;;;;-1.50;99.90;;;;;;5090679;28;19928;-66
2022/11/19 04:37:28;;;;;;;;;;;-1.50;99.90;;;;;;5124040;27;19928;-65
2022/11/19 04:39:53;;;;;;;;;;;-1.50;99.90;;;;;;5064867;28;19992;-66
2022/11/19 04:42:19;;;;;;;;;;;-1.30;99.90;;;;;;5056867;28;19929;-66
2022/11/19 04:44:44;;;;;;;;;;;-1.50;99.90;;;;;;5076986;28;20251;-66
2022/11/19 04:47:10;;;;;;;;;;;-1.30;99.90;;;;;;5095679;28;19928;-65
2022/11/19 04:49:35;;;;;;;;;;;-1.50;99.90;;;;;;5106429;28;19924;-65
2022/11/19 04:52:01;;;;;;;;;;;-1.30;99.90;;;;;;5090151;28;19924;-65
2022/11/19 04:54:27;;;;;;;;;;;-1.30;99.90;;;;;;5090802;28;20395;-68
2022/11/19 04:56:52;;;;;;;;;;;-1.50;99.90;;;;;;5089490;28;19924;-65
2022/11/19 04:59:18;;;;;;;;;;;-1.50;99.90;;;;;;5089811;28;20480;-71
2022/11/19 05:01:43;;;;;;;;;;;-1.50;99.90;;;;;;5092491;28;19977;-72
2022/11/19 05:04:09;;;;;;;;;;;-1.50;99.90;;;;;;5058009;28;19931;-69
2022/11/19 05:06:35;;;;;;;;;;;-1.50;99.90;;;;;;5074292;28;19968;-70
2022/11/19 05:09:00;;;;;;;;;;;-1.50;99.90;;;;;;5125559;27;20392;-69
2022/11/19 05:11:26;;;;;;;;;;;-1.50;99.90;;;;;;5125837;27;19923;-71
2022/11/19 05:13:51;;;;;;;;;;;-1.50;99.90;;;;;;5090799;28;20010;-70
2022/11/19 05:16:17;;;;;;;;;;;-1.60;99.90;;;;;;5091165;28;19931;-70
2022/11/19 05:18:43;;;;;;;;;;;-1.60;99.90;;;;;;5090993;28;19947;-69
2022/11/19 05:21:09;;;;;;;;;;;-1.50;99.90;;;;;;5092320;28;19924;-70
2022/11/19 05:23:35;;;;;;;;;;;-1.60;99.90;;;;;;5091831;28;20266;-71
2022/11/19 05:26:00;;;;;;;;;;;-1.60;99.90;;;;;;5090844;28;19924;-71
2022/11/19 05:28:26;;;;;;;;;;;-1.60;99.90;;;;;;5125258;27;19935;-70
2022/11/19 05:30:54;;;;;;;;;;;-0.80;99.90;;;;;;5090396;28;19919;-70
2022/11/19 05:33:20;;;;;;;;;;;-1.60;99.90;;;;;;5092109;28;19931;-70
2022/11/19 05:35:46;;;;;;;;;;;-1.60;99.90;;;;;;5091775;28;19924;-69
2022/11/19 05:38:12;;;;;;;;;;;-1.60;99.90;;;;;;5074274;28;20361;-69
2022/11/19 05:40:37;;;;;;;;;;;-1.60;99.90;;;;;;5124501;28;19924;-70
2022/11/19 05:43:04;;;;;;;;;;;-1.60;99.90;;;;;;5124773;28;19958;-70
2022/11/19 05:45:30;;;;;;;;;;;-1.70;99.90;;;;;;5124873;28;20422;-70
2022/11/19 05:47:55;;;;;;;;;;;-1.10;99.90;;;;;;5091849;28;19924;-71
2022/11/19 05:50:21;;;;;;;;;;;-1.60;99.90;;;;;;5099792;28;19924;-71
2022/11/19 05:52:46;;;;;;;;;;;-1.60;99.90;;;;;;5094661;28;19928;-69
2022/11/19 05:55:12;;;;;;;;;;;-1.60;99.90;;;;;;5090991;28;20422;-69
2022/11/19 05:57:37;;;;;;;;;;;-1.70;99.90;;;;;;5093470;28;19982;-71
2022/11/19 06:00:04;;;;;;;;;;;-1.20;99.90;;;;;;5095965;28;19928;-69
2022/11/19 06:02:29;;;;;;;;;;;-1.60;99.90;;;;;;5078416;28;19928;-70
2022/11/19 06:04:55;;;;;;;;;;;-1.40;99.90;;;;;;5095429;28;19931;-69
2022/11/19 06:07:20;;;;;;;;;;;-1.70;99.90;;;;;;5095870;28;20404;-70
2022/11/19 06:09:46;;;;;;;;;;;-1.70;99.90;;;;;;5128411;27;19975;-70
2022/11/19 06:12:11;;;;;;;;;;;-1.70;99.90;;;;;;5094688;28;19924;-71
2022/11/19 06:14:37;;;;;;;;;;;-1.60;99.90;;;;;;5095328;28;19946;-69
2022/11/19 06:17:03;;;;;;;;;;;-1.70;99.90;;;;;;5094922;28;19939;-68
2022/11/19 06:19:28;;;;;;;;;;;-1.70;99.90;;;;;;5095624;28;19928;-69
2022/11/19 06:21:54;;;;;;;;;;;-1.70;99.90;;;;;;5094241;28;19932;-69
2022/11/19 06:24:19;;;;;;;;;;;-1.70;99.90;;;;;;5095563;28;19958;-69
2022/11/19 06:26:45;;;;;;;;;;;-1.70;99.90;;;;;;5111384;28;19931;-70
2022/11/19 06:29:15;;;;;;;;;;;-1.80;99.90;;;;;;5094599;28;19924;-70
2022/11/19 06:31:41;;;;;;;;;;;-1.80;99.90;;;;;;5093594;28;20281;-71
2022/11/19 06:34:06;;;;;;;;;;;-1.80;99.90;;;;;;5095183;28;19931;-71
2022/11/19 06:36:32;;;;;;;;;;;-1.80;99.90;;;;;;5095449;28;19924;-70
2022/11/19 06:38:57;;;;;;;;;;;-1.80;99.90;;;;;;5110753;28;19924;-70
2022/11/19 06:41:23;;;;;;;;;;;-1.80;99.90;;;;;;5110789;28;19946;-69
2022/11/19 06:43:49;;;;;;;;;;;-1.80;99.90;;;;;;5093478;28;19928;-70
2022/11/19 06:46:14;;;;;;;;;;;-1.80;99.90;;;;;;5095232;28;19935;-70
2022/11/19 06:48:40;;;;;;;;;;;-1.80;99.90;;;;;;5095558;28;20474;-70
2022/11/19 06:51:06;;;;;;;;;;;-1.80;99.90;;;;;;5094774;28;19924;-70
2022/11/19 06:53:32;;;;;;;;;;;-1.80;99.90;;;;;;5110739;28;19924;-70
2022/11/19 06:55:58;;;;;;;;;;;-1.80;99.90;;;;;;5093930;28;19923;-70
2022/11/19 06:58:24;;;;;;;;;;;-1.30;99.90;;;;;;5127700;27;20038;-69
2022/11/19 07:00:50;;;;;;;;;;;-1.80;99.90;;;;;;5126985;27;19924;-69
2022/11/19 07:03:17;;;;;;;;;;;-1.80;99.90;;;;;;5093611;28;19924;-70
2022/11/19 07:05:42;;;;;;;;;;;-1.80;99.90;;;;;;5127736;27;19924;-69
2022/11/19 07:08:08;;;;;;;;;;;-1.90;99.90;;;;;;5096716;28;19935;-71
2022/11/19 07:10:34;;;;;;;;;;;-1.80;99.90;;;;;;5100862;28;19962;-69
2022/11/19 07:13:00;;;;;;;;;;;-1.30;99.90;;;;;;5092961;28;19924;-70
2022/11/19 07:15:25;;;;;;;;;;;-1.80;99.90;;;;;;5094402;28;20280;-70
2022/11/19 07:17:51;;;;;;;;;;;-1.90;99.90;;;;;;5092807;28;20008;-69
2022/11/19 07:20:16;;;;;;;;;;;-1.90;99.90;;;;;;5094392;28;20022;-69
2022/11/19 07:22:42;;;;;;;;;;;-1.20;99.90;;;;;;5076631;28;19924;-70
2022/11/19 07:25:11;;;;;;;;;;;-1.60;99.90;;;;;;5093911;28;19924;-69
2022/11/19 07:27:36;;;;;;;;;;;-1.80;99.90;;;;;;5093257;28;19924;-71
2022/11/19 07:30:04;;;;;;;;;;;-1.80;99.90;;;;;;5092279;28;19985;-70
2022/11/19 07:32:30;;;;;;;;;;;-1.80;99.90;;;;;;5092962;28;19973;-69
2022/11/19 07:34:56;;;;;;;;;;;-1.80;99.90;;;;;;5110005;28;19928;-70
2022/11/19 07:37:22;;;;;;;;;;;-1.80;99.90;;;;;;5092928;28;20011;-70
2022/11/19 07:39:47;;;;;;;;;;;-1.80;99.90;;;;;;5076368;28;19928;-70
2022/11/19 07:44:57;;;;;;;;;;;-1.80;99.90;;;;;;5127071;27;20273;-70
2022/11/19 07:47:23;;;;;;;;;;;-1.80;99.90;;;;;;5092602;28;19924;-70
2022/11/19 07:49:48;;;;;;;;;;;-1.70;99.90;;;;;;5094037;28;19928;-70
2022/11/19 07:52:14;;;;;;;;;;;-1.70;99.90;;;;;;5109253;28;20372;-69
2022/11/19 07:54:40;;;;;;;;;;;-1.70;99.90;;;;;;5092117;28;19924;-69
2022/11/19 07:57:06;;;;;;;;;;;-1.70;99.90;;;;;;5093232;28;19924;-68
2022/11/19 07:59:31;;;;;;;;;;;-1.70;99.90;;;;;;5092513;28;19935;-70
2022/11/19 08:01:57;;;;;;;;;;;-1.60;99.90;;;;;;5126403;27;19961;-69
2022/11/19 08:04:22;;;;;;;;;;;-1.60;99.90;;;;;;5092619;28;20296;-69
2022/11/19 08:06:48;;;;;;;;;;;-1.60;99.90;;;;;;5092670;28;19967;-70
2022/11/19 08:09:14;;;;;;;;;;;-1.60;99.90;;;;;;5109477;28;19939;-69
2022/11/19 08:11:39;;;;;;;;;;;-1.50;99.90;;;;;;5109640;28;20359;-70
2022/11/19 08:14:05;;;;;;;;;;;-1.00;99.90;;;;;;5091946;28;19967;-70
2022/11/19 08:19:21;;;;;;;;;;;-1.50;99.90;;;;;;5078999;28;19974;-70
2022/11/19 08:21:47;;;;;;;;;;;-1.10;99.90;;;;;;5126405;27;19994;-69
2022/11/19 08:24:13;;;;;;;;;;;-0.80;99.90;;;;;;5093162;28;20408;-71
2022/11/19 08:26:39;;;;;;;;;;;-1.40;99.90;;;;;;5133023;27;20393;-68
2022/11/19 08:29:05;;;;;;;;;;;-1.30;99.90;;;;;;5104008;28;19924;-68
2022/11/19 08:31:31;;;;;;;;;;;-1.30;99.90;;;;;;5097412;28;19978;-70
2022/11/19 08:33:56;;;;;;;;;;;-1.20;99.90;;;;;;5093032;28;19977;-70
2022/11/19 08:36:22;;;;;;;;;;;-1.20;99.90;;;;;;5093028;28;19928;-70
2022/11/19 08:38:47;;;;;;;;;;;-0.90;99.90;;;;;;5093150;28;19928;-69
2022/11/19 08:44:01;;;;;;;;;;;-1.10;99.90;;;;;;5126388;27;19924;-69
2022/11/19 08:46:26;;;;;;;;;;;-1.10;99.90;;;;;;5091281;28;20395;-69
2022/11/19 08:48:52;;;;;;;;;;;-1.00;99.90;;;;;;5074850;28;19924;-70
2022/11/19 08:51:17;;;;;;;;;;;-1.00;99.90;;;;;;5091284;28;20660;-69
2022/11/19 08:53:43;;;;;;;;;;;-0.80;99.90;;;;;;5092883;28;19935;-66
2022/11/19 08:56:09;;;;;;;;;;;-0.70;99.90;;;;;;5125084;27;20289;-68
2022/11/19 08:58:34;;;;;;;;;;;-0.90;99.90;;;;;;5092467;28;19924;-69
2022/11/19 09:01:07;;;;;;;;;;;-0.90;99.90;;;;;;5108314;28;19931;-70
2022/11/19 09:03:32;;;;;;;;;;;-0.90;99.90;;;;;;5091253;28;20036;-68
2022/11/19 09:05:58;;;;;;;;;;;-0.80;99.90;;;;;;5092435;28;20005;-69
2022/11/19 09:08:24;;;;;;;;;;;-0.80;99.90;;;;;;5092031;28;19935;-68
2022/11/19 09:10:49;;;;;;;;;;;-0.80;99.90;;;;;;5091352;28;19959;-68
2022/11/19 09:13:15;;;;;;;;;;;-0.80;99.90;;;;;;5092172;28;19970;-67
2022/11/19 09:15:40;;;;;;;;;;;-0.70;99.90;;;;;;5125659;27;19970;-69
2022/11/19 09:18:06;;;;;;;;;;;-0.70;99.90;;;;;;5091981;28;19924;-69
2022/11/19 09:20:32;;;;;;;;;;;-0.70;99.90;;;;;;5091615;28;20335;-68
2022/11/19 09:22:57;;;;;;;;;;;-0.20;99.90;;;;;;5093057;28;19946;-69
2022/11/19 09:25:23;;;;;;;;;;;-0.50;99.90;;;;;;5091813;28;19922;-69
2022/11/19 09:27:48;;;;;;;;;;;-0.60;99.90;;;;;;5092319;28;19932;-68
2022/11/19 09:30:14;;;;;;;;;;;-0.60;99.90;;;;;;5092194;28;20203;-69
2022/11/19 09:32:39;;;;;;;;;;;-0.50;99.90;;;;;;5090147;28;20010;-70
2022/11/19 09:35:05;;;;;;;;;;;-0.50;99.90;;;;;;5124962;27;19925;-69
2022/11/19 09:37:32;;;;;;;;;;;-0.50;99.90;;;;;;5092534;28;20456;-69
2022/11/19 09:39:58;;;;;;;;;;;-0.40;99.90;;;;;;5090964;28;20034;-69
2022/11/19 09:42:42;;;;;;;;;;;-0.40;99.90;;;;;;5090968;28;20277;-68
2022/11/19 09:45:17;;;;;;;;;;;-0.40;99.90;;;;;;5124765;28;19925;-69
2022/11/19 09:48:01;;;;;;;;;;;-0.30;99.90;;;;;;5114537;28;19924;-69
2022/11/19 09:50:29;;;;;;;;;;;-0.30;99.90;;;;;;5128347;28;20428;-69
2022/11/19 09:53:05;;;;;;;;;;;-0.20;99.90;;;;;;5091815;28;19931;-69
2022/11/19 09:55:33;;;;;;;;;;;-0.20;99.90;;;;;;5091776;28;19947;-68
2022/11/19 09:57:59;;;;;;;;;;;0.40;99.90;;;;;;5092022;28;19924;-67
2022/11/19 10:00:26;;;;;;;;;;;-0.10;99.90;;;;;;5091551;28;19935;-68
2022/11/19 10:02:52;;;;;;;;;;;-0.10;99.90;;;;;;5074256;28;19924;-68
2022/11/19 10:05:24;;;;;;;;;;;0.10;99.90;;;;;;5090589;28;20284;-68
2022/11/19 10:07:53;;;;;;;;;;;0.00;99.90;;;;;;5090723;28;19967;-69
2022/11/19 10:10:24;;;;;;;;;;;0.10;99.90;;;;;;5107217;28;19931;-68
2022/11/19 10:13:13;;;;;;;;;;;0.20;99.90;;;;;;5090439;28;19981;-69
2022/11/19 10:15:39;;;;;;;;;;;0.20;99.90;;;;;;5099230;28;19928;-69
2022/11/19 10:18:12;;;;;;;;;;;0.40;99.90;;;;;;5090876;28;19924;-68
2022/11/19 10:20:56;;;;;;;;;;;0.30;99.90;;;;;;5091805;28;19976;-69
2022/11/19 10:23:41;;;;;;;;;;;0.30;99.90;;;;;;5090089;28;20339;-69
2022/11/19 10:26:11;;;;;;;;;;;0.40;99.90;;;;;;5073543;28;19924;-69
2022/11/19 10:28:38;;;;;;;;;;;0.40;99.90;;;;;;5090415;28;20036;-69
2022/11/19 10:31:12;;;;;;;;;;;1.00;99.90;;;;;;5090174;28;20293;-69
2022/11/19 10:33:53;;;;;;;;;;;0.50;99.90;;;;;;5091582;28;19924;-69
2022/11/19 10:36:28;;;;;;;;;;;0.60;99.90;;;;;;5091164;28;19924;-68
2022/11/19 10:39:06;;;;;;;;;;;0.60;99.90;;;;;;5124705;28;19924;-69
2022/11/19 10:41:45;;;;;;;;;;;0.70;99.90;;;;;;5091340;28;20026;-67
2022/11/19 10:44:35;;;;;;;;;;;0.80;99.90;;;;;;5092419;28;19924;-69
2022/11/19 10:46:59;;;;;;;;;;;0.70;99.90;;;;;;5094169;28;19969;-68
2022/11/19 10:49:24;;;;;;;;;;;0.80;99.90;;;;;;5127858;27;19928;-68
2022/11/19 10:51:50;;;;;;;;;;;0.80;99.90;;;;;;5128023;27;19924;-67
2022/11/19 10:54:24;;;;;;;;;;;0.90;99.90;;;;;;5093887;28;19924;-68
2022/11/19 10:56:50;;;;;;;;;;;0.90;99.90;;;;;;5095044;28;19924;-68
2022/11/19 10:59:20;;;;;;;;;;;1.00;99.90;;;;;;5094839;28;20306;-69
2022/11/19 11:01:58;;;;;;;;;;;1.00;99.90;;;;;;5127641;27;19924;-68
2022/11/19 11:04:24;;;;;;;;;;;1.10;99.90;;;;;;5102675;28;20278;-68
2022/11/19 11:06:57;;;;;;;;;;;1.20;99.90;;;;;;5136861;27;20296;-67
2022/11/19 11:09:29;;;;;;;;;;;1.20;99.90;;;;;;5100350;28;19924;-68
2022/11/19 11:14:53;;;;;;;;;;;1.30;99.90;;;;;;5039491;28;20382;-69
2022/11/19 11:17:30;;;;;;;;;;;1.30;99.90;;;;;;5093254;28;20015;-68
2022/11/19 11:20:06;;;;;;;;;;;1.30;99.90;;;;;;5110549;28;19924;-67
2022/11/19 11:22:32;;;;;;;;;;;1.30;99.90;;;;;;5076315;28;20298;-67
2022/11/19 11:24:59;;;;;;;;;;;1.40;99.90;;;;;;5094422;28;20015;-68
2022/11/19 11:27:30;;;;;;;;;;;1.40;99.90;;;;;;5092570;28;19978;-66
2022/11/19 11:30:11;;;;;;;;;;;1.40;99.90;;;;;;5094413;28;20329;-68
2022/11/19 11:32:37;;;;;;;;;;;1.40;99.90;;;;;;5092335;28;20257;-68
2022/11/19 11:35:04;;;;;;;;;;;1.50;99.90;;;;;;5094110;28;20441;-68
2022/11/19 11:37:30;;;;;;;;;;;1.50;99.90;;;;;;5092593;28;19931;-67
2022/11/19 11:39:56;;;;;;;;;;;1.50;99.90;;;;;;5093239;28;19967;-67
2022/11/19 11:42:27;;;;;;;;;;;1.60;99.90;;;;;;5093818;28;19967;-69
2022/11/19 11:44:54;;;;;;;;;;;1.60;99.90;;;;;;5109859;28;19924;-67
2022/11/19 11:47:29;;;;;;;;;;;1.60;99.90;;;;;;5126446;27;19932;-68
2022/11/19 11:50:11;;;;;;;;;;;1.60;99.90;;;;;;5092539;28;19924;-67
2022/11/19 11:52:42;;;;;;;;;;;1.70;99.90;;;;;;5075216;28;20262;-68
2022/11/19 11:55:14;;;;;;;;;;;1.70;99.90;;;;;;5126014;27;19954;-69
2022/11/19 11:58:09;;;;;;;;;;;1.80;99.90;;;;;;5093380;28;19931;-68
2022/11/19 12:00:39;;;;;;;;;;;1.80;99.90;;;;;;5112931;27;20588;-70
2022/11/19 12:03:06;;;;;;;;;;;1.80;99.90;;;;;;5093694;28;19935;-68
2022/11/19 12:05:55;;;;;;;;;;;1.70;99.90;;;;;;5093563;28;19926;-68
2022/11/19 12:08:23;;;;;;;;;;;1.80;99.90;;;;;;5101117;28;20007;-68
2022/11/19 12:10:57;;;;;;;;;;;1.80;99.90;;;;;;5093966;28;19931;-68
2022/11/19 12:13:34;;;;;;;;;;;1.90;99.90;;;;;;5092789;28;19928;-68
2022/11/19 12:16:05;;;;;;;;;;;1.90;99.90;;;;;;5093616;28;19989;-68
2022/11/19 12:18:42;;;;;;;;;;;1.90;99.90;;;;;;5092143;28;19924;-66
2022/11/19 12:21:09;;;;;;;;;;;1.90;99.90;;;;;;5126608;27;19924;-68
2022/11/19 12:23:34;;;;;;;;;;;1.90;99.90;;;;;;5092904;28;19935;-67
2022/11/19 12:26:11;;;;;;;;;;;2.00;99.90;;;;;;5108724;28;20400;-69
2022/11/19 12:28:57;;;;;;;;;;;1.90;99.90;;;;;;5101504;28;19977;-68
2022/11/19 12:31:43;;;;;;;;;;;2.00;99.90;;;;;;5090065;28;20403;-67
2022/11/19 12:34:27;;;;;;;;;;;2.00;99.90;;;;;;5093212;28;19924;-67
2022/11/19 12:36:59;;;;;;;;;;;2.00;99.90;;;;;;5125745;27;20048;-68
2022/11/19 12:39:28;;;;;;;;;;;2.00;99.90;;;;;;5092918;28;19924;-69
2022/11/19 12:42:10;;;;;;;;;;;2.00;99.90;;;;;;5092023;28;19931;-67
2022/11/19 12:44:42;;;;;;;;;;;2.00;99.90;;;;;;5108439;28;19924;-69
2022/11/19 12:47:26;;;;;;;;;;;2.00;99.90;;;;;;5090963;28;19924;-69
2022/11/19 12:50:04;;;;;;;;;;;2.00;99.90;;;;;;5090458;28;19987;-71
2022/11/19 12:52:45;;;;;;;;;;;2.00;99.90;;;;;;5091387;28;19932;-69
2022/11/19 12:55:13;;;;;;;;;;;2.00;99.90;;;;;;5091350;28;19939;-68
2022/11/19 12:57:49;;;;;;;;;;;2.00;99.90;;;;;;5125181;27;19996;-70
2022/11/19 13:00:17;;;;;;;;;;;2.00;99.90;;;;;;5092610;28;19924;-74
2022/11/19 13:02:46;;;;;;;;;;;2.00;99.90;;;;;;5107847;28;20398;-69
2022/11/19 13:05:11;;;;;;;;;;;2.00;99.90;;;;;;5091227;28;19931;-69
2022/11/19 13:07:40;;;;;;;;;;;2.70;99.90;;;;;;5090399;28;19924;-70
2022/11/19 13:10:15;;;;;;;;;;;2.10;99.90;;;;;;5092598;28;19930;-70
2022/11/19 13:12:43;;;;;;;;;;;2.10;99.90;;;;;;5074188;28;20069;-70
2022/11/19 13:15:29;;;;;;;;;;;2.10;99.90;;;;;;5108502;28;20249;-70
2022/11/19 13:17:56;;;;;;;;;;;2.10;99.90;;;;;;5091433;28;19939;-69
2022/11/19 13:20:37;;;;;;;;;;;2.10;99.90;;;;;;5091446;28;20037;-70
2022/11/19 13:23:04;;;;;;;;;;;2.10;99.90;;;;;;5090863;28;20399;-70
2022/11/19 13:25:38;;;;;;;;;;;2.20;99.90;;;;;;5090556;28;20453;-70
2022/11/19 13:28:12;;;;;;;;;;;2.10;99.90;;;;;;5091065;28;19927;-70
2022/11/19 13:30:40;;;;;;;;;;;2.10;99.90;;;;;;5092253;28;20302;-70
2022/11/19 13:33:12;;;;;;;;;;;2.10;99.90;;;;;;5107702;28;19924;-72
2022/11/19 13:35:54;;;;;;;;;;;2.10;99.90;;;;;;5091121;28;19928;-70
2022/11/19 13:38:19;;;;;;;;;;;2.10;99.90;;;;;;5108375;28;19924;-70
2022/11/19 13:40:48;;;;;;;;;;;2.00;99.90;;;;;;5091046;28;19985;-71
2022/11/19 13:46:22;;;;;;;;;;;2.00;99.90;;;;;;5125138;28;19949;-71
2022/11/19 13:48:47;;;;;;;;;;;2.00;99.90;;;;;;5133934;28;20289;-71
2022/11/19 13:51:22;;;;;;;;;;;2.00;99.90;;;;;;5113547;28;19924;-71
2022/11/19 13:53:48;;;;;;;;;;;2.00;99.90;;;;;;5125466;28;20282;-71
2022/11/19 13:56:16;;;;;;;;;;;2.70;99.90;;;;;;5092274;28;19954;-72
2022/11/19 13:58:51;;;;;;;;;;;2.00;99.90;;;;;;5091873;28;19935;-72
2022/11/19 14:01:35;;;;;;;;;;;2.00;99.90;;;;;;5092406;28;20326;-72
2022/11/19 14:04:20;;;;;;;;;;;1.90;99.90;;;;;;5091338;28;19951;-72
2022/11/19 14:07:11;;;;;;;;;;;1.90;99.90;;;;;;5090811;28;19999;-71
2022/11/19 14:09:37;;;;;;;;;;;1.90;99.90;;;;;;5109059;28;19970;-71
2022/11/19 14:12:08;;;;;;;;;;;1.90;99.90;;;;;;5107592;28;20270;-71
2022/11/19 14:26:39;;;;;;;;;;;1.80;99.90;;;;;;5128181;27;19981;-71
2022/11/19 14:29:25;;;;;;;;;;;1.80;99.90;;;;;;5093919;28;20377;-71
2022/11/19 14:32:04;;;;;;;;;;;1.80;99.90;;;;;;5116869;27;19924;-71
2022/11/19 14:34:35;;;;;;;;;;;2.00;99.90;;;;;;5094732;28;19924;-71
2022/11/19 14:37:03;;;;;;;;;;;1.70;99.90;;;;;;5094318;28;19974;-72
2022/11/19 14:39:30;;;;;;;;;;;1.70;99.90;;;;;;5128510;27;19924;-71
2022/11/19 14:42:10;;;;;;;;;;;1.70;99.90;;;;;;5128569;27;20026;-72
2022/11/19 14:44:36;;;;;;;;;;;1.70;99.90;;;;;;5094522;28;19928;-72
2022/11/19 14:47:21;;;;;;;;;;;1.70;99.90;;;;;;5094127;28;20003;-71
2022/11/19 14:49:47;;;;;;;;;;;1.60;99.90;;;;;;5094028;28;19924;-71
2022/11/19 14:52:31;;;;;;;;;;;1.60;99.90;;;;;;5094073;28;19963;-72
2022/11/19 14:55:05;;;;;;;;;;;1.60;99.90;;;;;;5111276;28;20019;-70
2022/11/19 14:57:38;;;;;;;;;;;1.60;99.90;;;;;;5111178;28;20015;-71
2022/11/19 15:00:06;;;;;;;;;;;1.50;99.90;;;;;;5127814;27;19953;-71
2022/11/19 15:02:44;;;;;;;;;;;1.50;99.90;;;;;;5094268;28;19932;-71
2022/11/19 15:05:15;;;;;;;;;;;1.50;99.90;;;;;;5095331;28;20338;-71
2022/11/19 15:07:41;;;;;;;;;;;1.40;99.90;;;;;;5098729;28;19935;-71